Cathlamet, Washington
Current Conditions -  °F | °C
As of 6:55 AM on Thursday 23 Oct 2014 (Local Time) from KKLS Reporting Station
Overcast Overcast  
Wind Chill: 54°   Ceiling: 1400
Heat Index: 54°   Visibility: 10mi
Dew Point: 50°   Wind: 5mph
Humidity: 88%   Direction: 150°SSE
Pressure: 29.77"   Gusts: NA
Location:  46.2°N, 123.38°W
Report Text: KKLS 231355Z AUTO 15004KT 10SM OVC014 12/10 A2977 RMK AO1 P0001
Loading
Personal Weather Stations






























Interactive Weather Map New forecast layout! Learn more

10-Day Weather Forecast

Advertisements
Track Severe Weather on mobile